createdAt,value
2018-12-06T00:04:21.098Z,7.20
2018-12-06T00:14:40.278Z,7.53
2018-12-06T00:24:59.131Z,7.20
2018-12-06T00:35:17.601Z,5.10
2018-12-06T00:45:36.489Z,6.93
2018-12-06T00:55:55.402Z,6.17
2018-12-06T01:06:13.873Z,6.97
2018-12-06T01:16:32.532Z,6.30
2018-12-06T01:26:52.023Z,5.33
2018-12-06T01:37:11.220Z,5.40
2018-12-06T01:47:31.070Z,6.10
2018-12-06T01:57:50.100Z,5.10
2018-12-06T02:08:09.204Z,5.60
2018-12-06T02:18:27.957Z,5.50
2018-12-06T02:28:46.715Z,5.60
2018-12-06T02:39:06.419Z,8.10
2018-12-06T02:49:25.094Z,16.67
2018-12-06T02:59:44.124Z,13.77
2018-12-06T03:10:02.521Z,8.83
2018-12-06T03:20:21.173Z,18.70
2018-12-06T03:30:40.322Z,8.17
2018-12-06T03:40:59.030Z,13.17
2018-12-06T03:51:17.983Z,9.77
2018-12-06T04:01:36.560Z,8.27
2018-12-06T04:11:54.743Z,7.67
2018-12-06T04:22:13.353Z,7.57
2018-12-06T04:32:32.192Z,6.77
2018-12-06T04:42:51.606Z,6.23
2018-12-06T04:53:10.791Z,5.60
2018-12-06T05:03:30.051Z,8.60
2018-12-06T05:13:49.781Z,5.40
2018-12-06T05:24:08.937Z,6.80
2018-12-06T05:34:27.788Z,6.97
2018-12-06T05:44:46.426Z,5.67
2018-12-06T05:55:06.179Z,5.93
2018-12-06T06:05:25.782Z,8.23
2018-12-06T06:15:44.531Z,7.40
2018-12-06T06:26:03.881Z,9.77
2018-12-06T06:36:23.112Z,6.70
2018-12-06T06:46:41.626Z,7.40
2018-12-06T06:57:00.566Z,7.83
2018-12-06T07:07:19.455Z,7.27
2018-12-06T07:17:38.733Z,6.73
2018-12-06T07:27:57.500Z,8.77
2018-12-06T07:38:16.079Z,8.03
2018-12-06T07:48:34.739Z,9.20
2018-12-06T07:58:53.493Z,8.70
2018-12-06T08:09:12.513Z,8.20
2018-12-06T08:22:57.739Z,7.97
2018-12-06T08:33:17.416Z,8.80
2018-12-06T08:43:37.236Z,7.80
2018-12-06T08:53:56.370Z,14.50
2018-12-06T09:04:15.805Z,7.83
2018-12-06T09:14:35.286Z,9.53
2018-12-06T09:24:54.966Z,9.07
2018-12-06T09:35:14.361Z,8.90
2018-12-06T09:45:34.051Z,8.03
2018-12-06T09:55:54.710Z,7.50
2018-12-06T10:06:14.362Z,7.07
2018-12-06T10:16:34.278Z,8.97
2018-12-06T10:26:53.587Z,8.20
2018-12-06T10:37:13.051Z,7.90
2018-12-06T10:47:32.092Z,8.60
2018-12-06T10:57:51.518Z,8.40
2018-12-06T11:08:11.240Z,7.87
2018-12-06T11:18:30.702Z,21.70
2018-12-06T11:28:50.058Z,9.73
2018-12-06T11:39:09.525Z,9.30
2018-12-06T11:49:28.778Z,9.77
2018-12-06T11:59:48.150Z,10.90
2018-12-06T12:10:08.378Z,12.17
2018-12-06T12:20:28.446Z,14.00
2018-12-06T12:30:47.941Z,11.53
2018-12-06T12:41:07.627Z,15.17
2018-12-06T12:51:27.532Z,11.23
2018-12-06T13:01:47.271Z,12.97
2018-12-06T13:12:09.015Z,13.27
2018-12-06T13:22:29.731Z,12.10
2018-12-06T13:32:50.469Z,11.57
2018-12-06T13:43:11.785Z,15.33
2018-12-06T13:53:31.954Z,12.63
2018-12-06T14:03:53.076Z,14.30
2018-12-06T14:14:13.152Z,12.17
2018-12-06T14:24:32.903Z,12.23
2018-12-06T14:34:53.286Z,14.87
2018-12-06T14:45:13.627Z,13.80
2018-12-06T14:55:35.329Z,17.80
2018-12-06T15:05:55.271Z,21.17
2018-12-06T15:16:16.112Z,25.50
2018-12-06T15:26:37.097Z,22.63
2018-12-06T15:36:56.552Z,20.23
2018-12-06T15:47:16.852Z,21.93
2018-12-06T15:57:37.008Z,17.20
2018-12-06T16:07:56.731Z,21.13
2018-12-06T16:18:17.340Z,19.97
2018-12-06T16:28:37.876Z,19.80
2018-12-06T16:38:57.941Z,21.53
2018-12-06T16:49:19.644Z,19.93
2018-12-06T16:59:40.067Z,21.07
2018-12-06T17:10:00.051Z,19.20
2018-12-06T17:20:20.843Z,20.03
2018-12-06T17:30:41.034Z,22.40
2018-12-06T17:41:02.138Z,25.03
2018-12-06T17:51:23.091Z,53.50
2018-12-06T18:01:42.915Z,26.77
2018-12-06T18:12:04.209Z,26.07
2018-12-06T18:22:24.787Z,25.17
2018-12-06T18:32:45.022Z,26.00
2018-12-06T18:43:06.164Z,76.60
2018-12-06T18:53:27.564Z,30.27
2018-12-06T19:03:49.516Z,24.47
2018-12-06T19:14:22.096Z,25.80
2018-12-06T19:24:43.839Z,51.50
2018-12-06T19:35:05.451Z,57.73
2018-12-06T19:45:26.400Z,26.90
2018-12-06T19:55:48.307Z,24.37
2018-12-06T20:06:11.261Z,24.70
2018-12-06T20:16:32.762Z,33.00
2018-12-06T20:26:53.701Z,31.70
2018-12-06T20:37:15.364Z,32.60
2018-12-06T20:47:37.122Z,38.67
2018-12-06T20:57:57.843Z,37.40
2018-12-06T21:08:18.879Z,41.03
2018-12-06T21:18:41.971Z,62.40
2018-12-06T21:29:09.986Z,59.37
2018-12-06T21:39:29.815Z,117.60
2018-12-06T21:49:51.680Z,123.10
2018-12-06T22:00:12.457Z,82.27
2018-12-06T22:10:31.439Z,81.33
2018-12-06T22:20:54.399Z,23.13
2018-12-06T22:31:14.883Z,32.57
2018-12-06T22:41:33.968Z,19.27
2018-12-06T22:51:53.453Z,12.23
2018-12-06T23:02:14.486Z,7.57
2018-12-06T23:12:34.543Z,10.07
2018-12-06T23:22:55.094Z,9.90
2018-12-06T23:33:14.885Z,7.47
2018-12-06T23:43:33.804Z,9.60
2018-12-06T23:53:53.735Z,8.03
